Time;durP1;ratioP1;P1;durP2;ratioP2;P2;SDS_P1;SDS_P2;PMS_P1;PMS_P2;Temp;Humidity;BMP_temperature;BMP_pressure;BME280_temperature;BME280_humidity;BME280_pressure;Samples;Min_cycle;Max_cycle;Signal;HPM_P1;HPM_P2
2022/03/26 00:01:28;;;;;;;;;;;;;;;;;;4221684;28;1913;-53
2022/03/26 00:03:49;;;;;;;;;;;;;;;;;;4221593;28;1061;-53
2022/03/26 00:06:09;;;;;;;;;;;;;;;;;;4221790;28;1000;-53
2022/03/26 00:08:30;;;;;;;;;;;;;;;;;;4221473;28;1009;-53
2022/03/26 00:10:51;;;;;;;;;;;;;;;;;;4221890;28;1010;-52
2022/03/26 00:13:12;;;;;;;;;;;;;;;;;;4221670;28;977;-53
2022/03/26 00:15:32;;;;;;;;;;;;;;;;;;4221614;28;932;-52
2022/03/26 00:17:53;;;;;;;;;;;;;;;;;;4221483;28;1004;-52
2022/03/26 00:20:13;;;;;;;;;;;;;;;;;;4221741;28;971;-53
2022/03/26 00:22:34;;;;;;;;;;;;;;;;;;4221367;28;1930;-53
2022/03/26 00:24:55;;;;;;;;;;;;;;;;;;4221269;28;1175;-53
2022/03/26 00:27:15;;;;;;;;;;;;;;;;;;4221295;28;1014;-53
2022/03/26 00:29:36;;;;;;;;;;;;;;;;;;4221297;28;982;-53
2022/03/26 00:31:57;;;;;;;;;;;;;;;;;;4220748;28;1064;-53
2022/03/26 00:34:18;;;;;;;;;;;;;;;;;;4220714;28;1176;-53
2022/03/26 00:36:39;;;;;;;;;;;;;;;;;;4221139;28;876;-53
2022/03/26 00:39:00;;;;;;;;;;;;;;;;;;4221245;28;1015;-53
2022/03/26 00:41:22;;;;;;;;;;;;;;;;;;4220657;28;1979;-53
2022/03/26 00:43:43;;;;;;;;;;;;;;;;;;4221020;28;1293;-53
2022/03/26 00:46:04;;;;;;;;;;;;;;;;;;4221051;28;925;-53
2022/03/26 00:48:24;;;;;;;;;;;;;;;;;;4221201;28;894;-53
2022/03/26 00:50:45;;;;;;;;;;;;;;;;;;4220833;28;1374;-53
2022/03/26 00:53:06;;;;;;;;;;;;;;;;;;4220952;28;931;-53
2022/03/26 00:55:26;;;;;;;;;;;;;;;;;;4220728;28;981;-53
2022/03/26 00:57:47;;;;;;;;;;;;;;;;;;4220213;28;964;-53
2022/03/26 01:00:08;;;;;;;;;;;;;;;;;;4220590;28;812;-53
2022/03/26 01:02:28;;;;;;;;;;;;;;;;;;4220576;28;1910;-53
2022/03/26 01:04:49;;;;;;;;;;;;;;;;;;4220758;28;875;-53
2022/03/26 01:07:10;;;;;;;;;;;;;;;;;;4220887;28;1025;-53
2022/03/26 01:09:30;;;;;;;;;;;;;;;;;;4221175;28;1014;-53
2022/03/26 01:11:51;;;;;;;;;;;;;;;;;;4220058;28;1075;-53
2022/03/26 01:14:12;;;;;;;;;;;;;;;;;;4220760;28;1094;-52
2022/03/26 01:16:32;;;;;;;;;;;;;;;;;;4220747;28;1073;-53
2022/03/26 01:18:55;;;;;;;;;;;;;;;;;;4220763;28;875;-53
2022/03/26 01:21:16;;;;;;;;;;;;;;;;;;4220550;28;966;-53
2022/03/26 01:23:36;;;;;;;;;;;;;;;;;;4221092;28;931;-52
2022/03/26 01:25:58;;;;;;;;;;;;;;;;;;4220472;28;1016;-52
2022/03/26 01:28:19;;;;;;;;;;;;;;;;;;4220302;28;958;-52
2022/03/26 01:30:40;;;;;;;;;;;;;;;;;;4220651;28;1034;-53
2022/03/26 01:33:00;;;;;;;;;;;;;;;;;;4220677;28;1226;-53
2022/03/26 01:35:21;;;;;;;;;;;;;;;;;;4220355;28;868;-53
2022/03/26 01:37:42;;;;;;;;;;;;;;;;;;4220398;28;745;-53
2022/03/26 01:40:03;;;;;;;;;;;;;;;;;;4220574;28;1117;-53
2022/03/26 01:42:23;;;;;;;;;;;;;;;;;;4220518;28;1976;-53
2022/03/26 01:44:44;;;;;;;;;;;;;;;;;;4220739;28;966;-52
2022/03/26 01:47:05;;;;;;;;;;;;;;;;;;4220453;28;825;-53
2022/03/26 01:49:25;;;;;;;;;;;;;;;;;;4220030;28;1017;-53
2022/03/26 01:51:46;;;;;;;;;;;;;;;;;;4220020;28;1454;-53
2022/03/26 01:54:07;;;;;;;;;;;;;;;;;;4220154;28;1201;-55
2022/03/26 01:56:27;;;;;;;;;;;;;;;;;;4220342;28;956;-53
2022/03/26 01:58:48;;;;;;;;;;;;;;;;;;4219410;28;954;-53
2022/03/26 02:04:18;;;;;;;;;;;;;;;;;;4202114;28;1429;-53
2022/03/26 02:06:39;;;;;;;;;;;;;;;;;;4202534;28;1380;-53
2022/03/26 02:09:00;;;;;;;;;;;;;;;;;;4202522;28;1185;-53
2022/03/26 02:11:20;;;;;;;;;;;;;;;;;;4202664;28;1290;-53
2022/03/26 02:13:41;;;;;;;;;;;;;;;;;;4202488;28;1327;-53
2022/03/26 02:16:02;;;;;;;;;;;;;;;;;;4202733;28;1311;-53
2022/03/26 02:18:22;;;;;;;;;;;;;;;;;;4202632;28;1207;-53
2022/03/26 02:20:43;;;;;;;;;;;;;;;;;;4202610;28;1231;-53
2022/03/26 02:23:04;;;;;;;;;;;;;;;;;;4202626;28;1946;-53
2022/03/26 02:25:25;;;;;;;;;;;;;;;;;;4205302;28;933;-53
2022/03/26 02:27:45;;;;;;;;;;;;;;;;;;4205247;28;1173;-53
2022/03/26 02:30:06;;;;;;;;;;;;;;;;;;4205625;28;1188;-53
2022/03/26 02:32:26;;;;;;;;;;;;;;;;;;4206009;28;1010;-53
2022/03/26 02:34:48;;;;;;;;;;;;;;;;;;4205976;28;1036;-53
2022/03/26 02:37:08;;;;;;;;;;;;;;;;;;4205712;28;938;-53
2022/03/26 02:39:29;;;;;;;;;;;;;;;;;;4205915;28;1095;-53
2022/03/26 02:41:50;;;;;;;;;;;;;;;;;;4206095;28;1910;-52
2022/03/26 02:44:10;;;;;;;;;;;;;;;;;;4204399;28;1169;-53
2022/03/26 02:46:30;;;;;;;;;;;;;;;;;;4205988;28;955;-53
2022/03/26 02:48:51;;;;;;;;;;;;;;;;;;4205815;28;825;-53
2022/03/26 02:51:11;;;;;;;;;;;;;;;;;;4205839;28;949;-53
2022/03/26 02:53:32;;;;;;;;;;;;;;;;;;4205738;28;1093;-53
2022/03/26 02:55:53;;;;;;;;;;;;;;;;;;4205717;28;1114;-53
2022/03/26 02:58:14;;;;;;;;;;;;;;;;;;4205484;28;1147;-53
2022/03/26 03:00:34;;;;;;;;;;;;;;;;;;4205609;28;1084;-53
2022/03/26 03:02:55;;;;;;;;;;;;;;;;;;4205262;28;1905;-53
2022/03/26 03:05:16;;;;;;;;;;;;;;;;;;4205384;28;1063;-53
2022/03/26 03:07:39;;;;;;;;;;;;;;;;;;4204649;28;1275;-53
2022/03/26 03:10:00;;;;;;;;;;;;;;;;;;4205351;28;917;-53
2022/03/26 03:12:22;;;;;;;;;;;;;;;;;;4205181;28;1636;-53
2022/03/26 03:14:42;;;;;;;;;;;;;;;;;;4205267;28;997;-53
2022/03/26 03:17:03;;;;;;;;;;;;;;;;;;4205474;28;850;-53
2022/03/26 03:19:23;;;;;;;;;;;;;;;;;;4205298;28;1158;-53
2022/03/26 03:21:44;;;;;;;;;;;;;;;;;;4204846;28;1166;-53
2022/03/26 03:24:05;;;;;;;;;;;;;;;;;;4205223;28;960;-52
2022/03/26 03:26:25;;;;;;;;;;;;;;;;;;4205135;28;905;-54
2022/03/26 03:28:46;;;;;;;;;;;;;;;;;;4204797;28;993;-53
2022/03/26 03:31:07;;;;;;;;;;;;;;;;;;4203508;28;919;-53
2022/03/26 03:33:27;;;;;;;;;;;;;;;;;;4205216;28;1072;-53
2022/03/26 03:35:49;;;;;;;;;;;;;;;;;;4204326;28;1092;-53
2022/03/26 03:38:09;;;;;;;;;;;;;;;;;;4205053;28;911;-53
2022/03/26 03:40:30;;;;;;;;;;;;;;;;;;4205008;28;979;-53
2022/03/26 03:42:52;;;;;;;;;;;;;;;;;;4205032;28;1913;-53
2022/03/26 03:45:13;;;;;;;;;;;;;;;;;;4205230;28;956;-53
2022/03/26 03:47:34;;;;;;;;;;;;;;;;;;4204928;28;1368;-53
2022/03/26 03:49:55;;;;;;;;;;;;;;;;;;4205401;28;1077;-53
2022/03/26 03:52:16;;;;;;;;;;;;;;;;;;4204888;28;874;-53
2022/03/26 03:54:36;;;;;;;;;;;;;;;;;;4205088;28;875;-53
2022/03/26 03:56:57;;;;;;;;;;;;;;;;;;4205050;28;1206;-53
2022/03/26 03:59:18;;;;;;;;;;;;;;;;;;4204584;28;1065;-53
2022/03/26 04:01:38;;;;;;;;;;;;;;;;;;4204642;28;1266;-52
2022/03/26 04:03:59;;;;;;;;;;;;;;;;;;4204860;28;1985;-53
2022/03/26 04:06:20;;;;;;;;;;;;;;;;;;4204338;28;1007;-53
2022/03/26 04:08:41;;;;;;;;;;;;;;;;;;4204608;28;1224;-53
2022/03/26 04:11:02;;;;;;;;;;;;;;;;;;4204791;28;996;-53
2022/03/26 04:13:23;;;;;;;;;;;;;;;;;;4204478;28;1018;-53
2022/03/26 04:15:43;;;;;;;;;;;;;;;;;;4204493;28;1167;-53
2022/03/26 04:18:04;;;;;;;;;;;;;;;;;;4204466;28;1029;-53
2022/03/26 04:20:25;;;;;;;;;;;;;;;;;;4204843;28;984;-52
2022/03/26 04:22:45;;;;;;;;;;;;;;;;;;4204379;28;1979;-53
2022/03/26 04:25:06;;;;;;;;;;;;;;;;;;4204608;28;968;-53
2022/03/26 04:27:27;;;;;;;;;;;;;;;;;;4204667;28;1147;-53
2022/03/26 04:29:48;;;;;;;;;;;;;;;;;;4204433;28;930;-53
2022/03/26 04:32:10;;;;;;;;;;;;;;;;;;4204354;28;1194;-52
2022/03/26 04:34:30;;;;;;;;;;;;;;;;;;4204701;28;1012;-53
2022/03/26 04:36:51;;;;;;;;;;;;;;;;;;4204318;28;1173;-53
2022/03/26 04:39:12;;;;;;;;;;;;;;;;;;4220988;28;1226;-53
2022/03/26 04:41:33;;;;;;;;;;;;;;;;;;4221061;28;1023;-53
2022/03/26 04:43:54;;;;;;;;;;;;;;;;;;4221133;28;1983;-52
2022/03/26 04:46:15;;;;;;;;;;;;;;;;;;4220142;28;981;-52
2022/03/26 04:48:35;;;;;;;;;;;;;;;;;;4221307;28;1270;-53
2022/03/26 04:50:56;;;;;;;;;;;;;;;;;;4221065;28;829;-53
2022/03/26 04:53:17;;;;;;;;;;;;;;;;;;4220670;28;1141;-52
2022/03/26 04:55:38;;;;;;;;;;;;;;;;;;4220773;28;1123;-53
2022/03/26 04:57:58;;;;;;;;;;;;;;;;;;4220535;28;1390;-53
2022/03/26 05:00:19;;;;;;;;;;;;;;;;;;4220703;28;1288;-53
2022/03/26 05:02:40;;;;;;;;;;;;;;;;;;4220747;28;1984;-53
2022/03/26 05:05:01;;;;;;;;;;;;;;;;;;4221162;28;932;-53
2022/03/26 05:10:00;;;;;;;;;;;;;;;;;;4220595;28;961;-53
2022/03/26 05:12:21;;;;;;;;;;;;;;;;;;4220461;28;1221;-53
2022/03/26 05:14:41;;;;;;;;;;;;;;;;;;4220804;28;914;-53
2022/03/26 05:17:02;;;;;;;;;;;;;;;;;;4220720;28;1011;-53
2022/03/26 05:19:22;;;;;;;;;;;;;;;;;;4220754;28;924;-53
2022/03/26 05:21:43;;;;;;;;;;;;;;;;;;4219842;28;1175;-53
2022/03/26 05:24:03;;;;;;;;;;;;;;;;;;4219869;28;1902;-53
2022/03/26 05:26:24;;;;;;;;;;;;;;;;;;4220657;28;1153;-53
2022/03/26 05:28:45;;;;;;;;;;;;;;;;;;4218947;28;979;-53
2022/03/26 05:31:07;;;;;;;;;;;;;;;;;;4220151;28;1043;-53
2022/03/26 05:33:27;;;;;;;;;;;;;;;;;;4220568;28;926;-53
2022/03/26 05:35:47;;;;;;;;;;;;;;;;;;4220183;28;1087;-53
2022/03/26 05:38:08;;;;;;;;;;;;;;;;;;4220180;28;1237;-52
2022/03/26 05:40:29;;;;;;;;;;;;;;;;;;4220551;28;1005;-52
2022/03/26 05:42:49;;;;;;;;;;;;;;;;;;4220482;28;817;-53
2022/03/26 05:45:10;;;;;;;;;;;;;;;;;;4220226;28;1096;-53
2022/03/26 05:47:31;;;;;;;;;;;;;;;;;;4220298;28;1142;-52
2022/03/26 05:49:51;;;;;;;;;;;;;;;;;;4220598;28;938;-53
2022/03/26 05:52:12;;;;;;;;;;;;;;;;;;4220580;28;818;-52
2022/03/26 05:54:32;;;;;;;;;;;;;;;;;;4220339;28;1362;-53
2022/03/26 05:56:53;;;;;;;;;;;;;;;;;;4215432;28;2776;-53
2022/03/26 05:59:14;;;;;;;;;;;;;;;;;;4227174;28;2147;-53
2022/03/26 06:01:35;;;;;;;;;;;;;;;;;;4227102;28;2397;-53
2022/03/26 06:03:55;;;;;;;;;;;;;;;;;;4227012;28;2076;-53
2022/03/26 06:06:16;;;;;;;;;;;;;;;;;;4220690;28;1943;-53
2022/03/26 06:08:37;;;;;;;;;;;;;;;;;;4224181;28;1908;-52
2022/03/26 06:10:57;;;;;;;;;;;;;;;;;;4227928;28;2111;-53
2022/03/26 06:13:18;;;;;;;;;;;;;;;;;;4227392;28;1439;-53
2022/03/26 06:15:39;;;;;;;;;;;;;;;;;;4229850;28;1517;-53
2022/03/26 06:17:59;;;;;;;;;;;;;;;;;;4227402;28;1725;-55
2022/03/26 06:20:20;;;;;;;;;;;;;;;;;;4224422;28;1693;-52
2022/03/26 06:22:40;;;;;;;;;;;;;;;;;;4227478;27;1951;-53
2022/03/26 06:25:01;;;;;;;;;;;;;;;;;;4203152;28;1955;-52
2022/03/26 06:27:22;;;;;;;;;;;;;;;;;;4227168;28;1633;-53
2022/03/26 06:29:42;;;;;;;;;;;;;;;;;;4220385;28;1643;-56
2022/03/26 06:32:03;;;;;;;;;;;;;;;;;;4219793;28;1208;-56
2022/03/26 06:34:24;;;;;;;;;;;;;;;;;;4218727;28;783;-56
2022/03/26 06:36:45;;;;;;;;;;;;;;;;;;4203153;28;965;-57
2022/03/26 06:39:06;;;;;;;;;;;;;;;;;;4203191;28;1126;-58
2022/03/26 06:41:26;;;;;;;;;;;;;;;;;;4204595;28;2536;-57
2022/03/26 06:43:47;;;;;;;;;;;;;;;;;;4212655;28;1986;-57
2022/03/26 06:46:08;;;;;;;;;;;;;;;;;;4215244;28;1755;-57
2022/03/26 06:48:29;;;;;;;;;;;;;;;;;;4217140;28;1711;-57
2022/03/26 06:50:49;;;;;;;;;;;;;;;;;;4217895;28;1347;-57
2022/03/26 06:53:10;;;;;;;;;;;;;;;;;;4205018;28;2348;-57
2022/03/26 06:55:31;;;;;;;;;;;;;;;;;;4202137;28;1258;-58
2022/03/26 06:57:51;;;;;;;;;;;;;;;;;;4201935;28;1056;-57
2022/03/26 07:00:13;;;;;;;;;;;;;;;;;;4202045;28;1218;-58
2022/03/26 07:02:33;;;;;;;;;;;;;;;;;;4205420;28;957;-57
2022/03/26 07:04:54;;;;;;;;;;;;;;;;;;4218712;28;1917;-57
2022/03/26 07:07:15;;;;;;;;;;;;;;;;;;4217630;28;1118;-57
2022/03/26 07:09:36;;;;;;;;;;;;;;;;;;4215774;28;2071;-57
2022/03/26 07:11:57;;;;;;;;;;;;;;;;;;4212664;28;2389;-57
2022/03/26 07:14:18;;;;;;;;;;;;;;;;;;4209623;28;2939;-58
2022/03/26 07:16:39;;;;;;;;;;;;;;;;;;4203907;28;1117;-57
2022/03/26 07:18:59;;;;;;;;;;;;;;;;;;4203437;28;841;-57
2022/03/26 07:21:20;;;;;;;;;;;;;;;;;;4199678;28;993;-55
2022/03/26 07:23:41;;;;;;;;;;;;;;;;;;4202127;28;1985;-52
2022/03/26 07:26:01;;;;;;;;;;;;;;;;;;4202998;28;992;-52
2022/03/26 07:28:22;;;;;;;;;;;;;;;;;;4202761;28;966;-56
2022/03/26 07:30:43;;;;;;;;;;;;;;;;;;4203036;28;1004;-57
2022/03/26 07:33:03;;;;;;;;;;;;;;;;;;4202993;28;920;-57
2022/03/26 07:35:24;;;;;;;;;;;;;;;;;;4230044;28;984;-56
2022/03/26 07:37:45;;;;;;;;;;;;;;;;;;4201766;28;1151;-57
2022/03/26 07:40:05;;;;;;;;;;;;;;;;;;4203930;28;942;-56
2022/03/26 07:42:26;;;;;;;;;;;;;;;;;;4203679;28;962;-57
2022/03/26 07:44:47;;;;;;;;;;;;;;;;;;4216931;28;1980;-57
2022/03/26 07:47:07;;;;;;;;;;;;;;;;;;4218121;28;1102;-57
2022/03/26 07:49:28;;;;;;;;;;;;;;;;;;4213850;28;1395;-57
2022/03/26 07:51:49;;;;;;;;;;;;;;;;;;4216036;28;790;-57
2022/03/26 07:54:09;;;;;;;;;;;;;;;;;;4215417;28;1016;-56
2022/03/26 07:56:30;;;;;;;;;;;;;;;;;;4215051;28;996;-56
2022/03/26 07:58:51;;;;;;;;;;;;;;;;;;4219187;28;1008;-55
2022/03/26 08:01:11;;;;;;;;;;;;;;;;;;4219319;28;965;-57
2022/03/26 08:03:32;;;;;;;;;;;;;;;;;;4219207;28;970;-56
2022/03/26 08:05:53;;;;;;;;;;;;;;;;;;4219244;28;1101;-55
2022/03/26 08:08:14;;;;;;;;;;;;;;;;;;4219260;28;1012;-56
2022/03/26 08:10:34;;;;;;;;;;;;;;;;;;4219056;28;1061;-56
2022/03/26 08:12:55;;;;;;;;;;;;;;;;;;4218785;28;1326;-56
2022/03/26 08:15:16;;;;;;;;;;;;;;;;;;4219377;28;961;-55
2022/03/26 08:17:37;;;;;;;;;;;;;;;;;;4218861;28;870;-55
2022/03/26 08:19:57;;;;;;;;;;;;;;;;;;4218072;28;1032;-56
2022/03/26 08:22:18;;;;;;;;;;;;;;;;;;4218919;28;958;-56
2022/03/26 08:24:39;;;;;;;;;;;;;;;;;;4218897;28;1998;-55
2022/03/26 08:27:00;;;;;;;;;;;;;;;;;;4218398;28;1262;-55
2022/03/26 08:29:20;;;;;;;;;;;;;;;;;;4218693;28;813;-55
2022/03/26 08:31:41;;;;;;;;;;;;;;;;;;4219038;28;1182;-55
2022/03/26 08:34:02;;;;;;;;;;;;;;;;;;4218792;28;886;-54
2022/03/26 08:36:23;;;;;;;;;;;;;;;;;;4219017;28;824;-55
2022/03/26 08:38:44;;;;;;;;;;;;;;;;;;4218887;28;836;-55
2022/03/26 08:41:05;;;;;;;;;;;;;;;;;;4218747;28;1268;-55
2022/03/26 08:43:26;;;;;;;;;;;;;;;;;;4218828;28;982;-56
2022/03/26 08:45:46;;;;;;;;;;;;;;;;;;4218803;28;1918;-55
2022/03/26 08:48:07;;;;;;;;;;;;;;;;;;4217954;28;1130;-55
2022/03/26 08:50:27;;;;;;;;;;;;;;;;;;4217533;28;1120;-57
2022/03/26 08:52:48;;;;;;;;;;;;;;;;;;4218356;28;964;-55
2022/03/26 08:55:09;;;;;;;;;;;;;;;;;;4218397;28;869;-56
2022/03/26 08:57:30;;;;;;;;;;;;;;;;;;4218332;28;1032;-56
2022/03/26 08:59:52;;;;;;;;;;;;;;;;;;4218792;28;1309;-56
2022/03/26 09:02:12;;;;;;;;;;;;;;;;;;4218210;28;969;-56
2022/03/26 09:04:33;;;;;;;;;;;;;;;;;;4217815;28;1902;-56
2022/03/26 09:06:54;;;;;;;;;;;;;;;;;;4218232;28;978;-55
2022/03/26 09:09:16;;;;;;;;;;;;;;;;;;4217896;28;1215;-55
2022/03/26 09:11:36;;;;;;;;;;;;;;;;;;4217771;28;1067;-55
2022/03/26 09:13:59;;;;;;;;;;;;;;;;;;4217880;28;921;-55
2022/03/26 09:16:19;;;;;;;;;;;;;;;;;;4218592;28;886;-55
2022/03/26 09:18:40;;;;;;;;;;;;;;;;;;4217468;28;1228;-55
2022/03/26 09:21:01;;;;;;;;;;;;;;;;;;4217889;28;998;-55
2022/03/26 09:23:22;;;;;;;;;;;;;;;;;;4218409;28;1520;-55
2022/03/26 09:25:42;;;;;;;;;;;;;;;;;;4217569;28;1910;-55
2022/03/26 09:28:03;;;;;;;;;;;;;;;;;;4218266;28;984;-57
2022/03/26 09:30:24;;;;;;;;;;;;;;;;;;4218335;28;1052;-56
2022/03/26 09:32:45;;;;;;;;;;;;;;;;;;4217638;28;1020;-55
2022/03/26 09:35:05;;;;;;;;;;;;;;;;;;4217921;28;1096;-55
2022/03/26 09:37:26;;;;;;;;;;;;;;;;;;4218311;28;880;-56
2022/03/26 09:39:46;;;;;;;;;;;;;;;;;;4217970;28;1048;-55
2022/03/26 09:42:07;;;;;;;;;;;;;;;;;;4217844;28;1111;-54
2022/03/26 09:44:28;;;;;;;;;;;;;;;;;;4217717;28;1978;-56
2022/03/26 09:46:49;;;;;;;;;;;;;;;;;;4217915;28;977;-55
2022/03/26 09:49:10;;;;;;;;;;;;;;;;;;4215722;28;1746;-56
2022/03/26 09:51:31;;;;;;;;;;;;;;;;;;4218085;28;1190;-55
2022/03/26 09:53:51;;;;;;;;;;;;;;;;;;4217049;28;1033;-55
2022/03/26 09:56:13;;;;;;;;;;;;;;;;;;4216909;28;1178;-56
2022/03/26 09:58:33;;;;;;;;;;;;;;;;;;4217168;28;1144;-55
2022/03/26 10:00:54;;;;;;;;;;;;;;;;;;4217246;28;1220;-55
2022/03/26 10:03:14;;;;;;;;;;;;;;;;;;4217775;28;956;-55
2022/03/26 10:05:35;;;;;;;;;;;;;;;;;;4217948;28;1905;-56
2022/03/26 10:07:56;;;;;;;;;;;;;;;;;;4217797;28;1167;-56
2022/03/26 10:10:17;;;;;;;;;;;;;;;;;;4217340;28;996;-55
2022/03/26 10:12:38;;;;;;;;;;;;;;;;;;4217552;28;1229;-55
2022/03/26 10:14:58;;;;;;;;;;;;;;;;;;4217563;28;1477;-55
2022/03/26 10:17:19;;;;;;;;;;;;;;;;;;4217028;28;1109;-56
2022/03/26 10:19:40;;;;;;;;;;;;;;;;;;4217036;28;1393;-55
2022/03/26 10:22:00;;;;;;;;;;;;;;;;;;4217744;28;982;-56
2022/03/26 10:24:21;;;;;;;;;;;;;;;;;;4216949;28;964;-56
2022/03/26 10:26:42;;;;;;;;;;;;;;;;;;4217355;28;1977;-56
2022/03/26 10:29:02;;;;;;;;;;;;;;;;;;4217515;28;945;-55
2022/03/26 10:34:01;;;;;;;;;;;;;;;;;;4217100;28;1271;-55
2022/03/26 10:36:21;;;;;;;;;;;;;;;;;;4217111;28;862;-57
2022/03/26 10:38:42;;;;;;;;;;;;;;;;;;4199785;28;1025;-56
2022/03/26 10:41:05;;;;;;;;;;;;;;;;;;4200441;28;922;-55
2022/03/26 10:43:25;;;;;;;;;;;;;;;;;;4199948;28;1095;-56
2022/03/26 10:45:46;;;;;;;;;;;;;;;;;;4202017;28;1999;-55
2022/03/26 10:48:07;;;;;;;;;;;;;;;;;;4203114;28;913;-56
2022/03/26 10:50:28;;;;;;;;;;;;;;;;;;4203287;28;955;-56
2022/03/26 10:52:48;;;;;;;;;;;;;;;;;;4203254;28;1109;-57
2022/03/26 10:55:09;;;;;;;;;;;;;;;;;;4202761;28;1197;-55
2022/03/26 10:57:30;;;;;;;;;;;;;;;;;;4203762;28;1023;-55
2022/03/26 10:59:51;;;;;;;;;;;;;;;;;;4215957;28;1620;-55
2022/03/26 11:02:12;;;;;;;;;;;;;;;;;;4220163;28;1226;-56
2022/03/26 11:04:32;;;;;;;;;;;;;;;;;;4219810;28;936;-55
2022/03/26 11:06:53;;;;;;;;;;;;;;;;;;4219836;28;1922;-55
2022/03/26 11:09:14;;;;;;;;;;;;;;;;;;4219681;28;1008;-55
2022/03/26 11:11:35;;;;;;;;;;;;;;;;;;4219847;28;1100;-55
2022/03/26 11:13:55;;;;;;;;;;;;;;;;;;4220237;28;1231;-55
2022/03/26 11:16:17;;;;;;;;;;;;;;;;;;4219940;28;1238;-56
2022/03/26 11:18:37;;;;;;;;;;;;;;;;;;4219842;28;969;-55
2022/03/26 11:20:58;;;;;;;;;;;;;;;;;;4219290;28;1295;-55
2022/03/26 11:23:19;;;;;;;;;;;;;;;;;;4219341;28;1003;-55
2022/03/26 11:25:40;;;;;;;;;;;;;;;;;;4219733;28;1913;-56
2022/03/26 11:28:01;;;;;;;;;;;;;;;;;;4220002;28;1413;-57
2022/03/26 11:30:21;;;;;;;;;;;;;;;;;;4219784;28;1006;-56
2022/03/26 11:32:44;;;;;;;;;;;;;;;;;;4202326;28;1201;-56
2022/03/26 11:35:05;;;;;;;;;;;;;;;;;;4202800;28;975;-56
2022/03/26 11:37:25;;;;;;;;;;;;;;;;;;4202844;28;1127;-55
2022/03/26 11:39:46;;;;;;;;;;;;;;;;;;4202189;28;1210;-55
2022/03/26 11:42:07;;;;;;;;;;;;;;;;;;4202608;28;1181;-55
2022/03/26 11:44:28;;;;;;;;;;;;;;;;;;4202577;28;1006;-56
2022/03/26 11:52:04;;;;;;;;;;;;;;;;;;4203195;28;915;-54
2022/03/26 11:54:25;;;;;;;;;;;;;;;;;;4201995;28;974;-55
2022/03/26 11:56:47;;;;;;;;;;;;;;;;;;4202004;28;961;-55
2022/03/26 11:59:07;;;;;;;;;;;;;;;;;;4201698;28;990;-55
2022/03/26 12:01:28;;;;;;;;;;;;;;;;;;4202028;28;854;-56
2022/03/26 12:03:48;;;;;;;;;;;;;;;;;;4202149;28;934;-56
2022/03/26 12:08:47;;;;;;;;;;;;;;;;;;4201988;28;1010;-56
2022/03/26 12:11:08;;;;;;;;;;;;;;;;;;4202124;28;1073;-56
2022/03/26 12:13:28;;;;;;;;;;;;;;;;;;4202045;28;981;-55
2022/03/26 12:15:49;;;;;;;;;;;;;;;;;;4201979;28;1166;-55
2022/03/26 12:18:10;;;;;;;;;;;;;;;;;;4202734;28;1025;-57
2022/03/26 12:20:31;;;;;;;;;;;;;;;;;;4202332;28;966;-55
2022/03/26 12:22:51;;;;;;;;;;;;;;;;;;4201641;28;990;-56
2022/03/26 12:25:16;;;;;;;;;;;;;;;;;;4205694;28;1070;-56
2022/03/26 12:27:37;;;;;;;;;;;;;;;;;;4218134;28;1151;-57
2022/03/26 12:29:58;;;;;;;;;;;;;;;;;;4219278;28;970;-56
2022/03/26 12:32:18;;;;;;;;;;;;;;;;;;4218291;28;1319;-56
2022/03/26 12:34:39;;;;;;;;;;;;;;;;;;4218857;28;981;-55
2022/03/26 12:37:00;;;;;;;;;;;;;;;;;;4219115;28;910;-55
2022/03/26 12:39:21;;;;;;;;;;;;;;;;;;4218110;28;953;-56
2022/03/26 12:41:42;;;;;;;;;;;;;;;;;;4218923;28;849;-56
2022/03/26 12:44:02;;;;;;;;;;;;;;;;;;4219490;28;1182;-56
2022/03/26 12:46:23;;;;;;;;;;;;;;;;;;4219638;28;1986;-56
2022/03/26 12:48:44;;;;;;;;;;;;;;;;;;4220044;28;1157;-56
2022/03/26 12:51:05;;;;;;;;;;;;;;;;;;4219913;28;1095;-56
2022/03/26 12:53:26;;;;;;;;;;;;;;;;;;4219608;28;880;-56
2022/03/26 12:55:46;;;;;;;;;;;;;;;;;;4219825;28;1223;-57
2022/03/26 13:00:45;;;;;;;;;;;;;;;;;;4219311;28;1066;-56
2022/03/26 13:03:06;;;;;;;;;;;;;;;;;;4220019;28;865;-57
2022/03/26 13:05:26;;;;;;;;;;;;;;;;;;4219667;28;1027;-56
2022/03/26 13:07:48;;;;;;;;;;;;;;;;;;4218342;28;1104;-56
2022/03/26 13:10:08;;;;;;;;;;;;;;;;;;4219747;28;930;-56
2022/03/26 13:12:29;;;;;;;;;;;;;;;;;;4219354;28;1147;-57
2022/03/26 13:14:50;;;;;;;;;;;;;;;;;;4219198;28;1222;-56
2022/03/26 13:17:11;;;;;;;;;;;;;;;;;;4219690;28;909;-57
2022/03/26 13:19:31;;;;;;;;;;;;;;;;;;4219281;28;1010;-57
2022/03/26 13:21:52;;;;;;;;;;;;;;;;;;4218917;28;1108;-56
2022/03/26 13:24:13;;;;;;;;;;;;;;;;;;4219272;28;1201;-57
2022/03/26 13:26:34;;;;;;;;;;;;;;;;;;4218986;28;1989;-56
2022/03/26 13:28:55;;;;;;;;;;;;;;;;;;4219004;28;977;-56
2022/03/26 13:31:16;;;;;;;;;;;;;;;;;;4218954;28;915;-56
2022/03/26 13:33:37;;;;;;;;;;;;;;;;;;4219476;28;1116;-56
2022/03/26 13:35:57;;;;;;;;;;;;;;;;;;4219777;28;982;-56
2022/03/26 13:38:18;;;;;;;;;;;;;;;;;;4218982;28;921;-56
2022/03/26 13:40:39;;;;;;;;;;;;;;;;;;4219284;28;967;-56
2022/03/26 13:43:01;;;;;;;;;;;;;;;;;;4219506;28;969;-55
2022/03/26 13:45:21;;;;;;;;;;;;;;;;;;4219207;28;806;-56
2022/03/26 13:47:41;;;;;;;;;;;;;;;;;;4218975;28;1988;-56
2022/03/26 13:50:02;;;;;;;;;;;;;;;;;;4219500;28;973;-56
2022/03/26 13:52:23;;;;;;;;;;;;;;;;;;4218939;28;1124;-56
2022/03/26 13:54:44;;;;;;;;;;;;;;;;;;4219018;28;1113;-56
2022/03/26 13:57:05;;;;;;;;;;;;;;;;;;4219280;28;910;-56
2022/03/26 13:59:26;;;;;;;;;;;;;;;;;;4218556;28;983;-56
2022/03/26 14:01:47;;;;;;;;;;;;;;;;;;4219117;28;975;-56
2022/03/26 14:04:08;;;;;;;;;;;;;;;;;;4219248;28;1058;-56
2022/03/26 14:06:29;;;;;;;;;;;;;;;;;;4218475;28;1879;-56
2022/03/26 14:08:49;;;;;;;;;;;;;;;;;;4218745;28;1194;-56
2022/03/26 14:11:10;;;;;;;;;;;;;;;;;;4218838;28;1083;-56
2022/03/26 14:13:31;;;;;;;;;;;;;;;;;;4219019;28;812;-56
2022/03/26 14:15:51;;;;;;;;;;;;;;;;;;4219096;28;1010;-56
2022/03/26 14:18:12;;;;;;;;;;;;;;;;;;4219390;28;820;-56
2022/03/26 14:20:32;;;;;;;;;;;;;;;;;;4224521;28;1012;-56
2022/03/26 14:22:56;;;;;;;;;;;;;;;;;;4224257;28;1180;-56
2022/03/26 14:25:17;;;;;;;;;;;;;;;;;;4224308;28;1276;-57
2022/03/26 14:27:37;;;;;;;;;;;;;;;;;;4224374;28;1910;-56
2022/03/26 14:29:58;;;;;;;;;;;;;;;;;;4224063;28;1064;-56
2022/03/26 14:32:19;;;;;;;;;;;;;;;;;;4224399;28;939;-56
2022/03/26 14:34:40;;;;;;;;;;;;;;;;;;4224470;28;1005;-56
2022/03/26 14:37:01;;;;;;;;;;;;;;;;;;4224069;28;950;-56
2022/03/26 14:39:22;;;;;;;;;;;;;;;;;;4223930;28;1084;-56
2022/03/26 14:41:43;;;;;;;;;;;;;;;;;;4224380;28;1125;-56
2022/03/26 14:44:03;;;;;;;;;;;;;;;;;;4223747;28;1196;-56
2022/03/26 14:46:24;;;;;;;;;;;;;;;;;;4224055;28;1914;-56
2022/03/26 14:48:45;;;;;;;;;;;;;;;;;;4223928;28;1173;-57
2022/03/26 14:51:06;;;;;;;;;;;;;;;;;;4223691;28;908;-56
2022/03/26 14:53:26;;;;;;;;;;;;;;;;;;4223745;28;851;-56
2022/03/26 14:55:49;;;;;;;;;;;;;;;;;;4223983;28;1211;-56
2022/03/26 14:58:09;;;;;;;;;;;;;;;;;;4226836;28;2046;-56
2022/03/26 15:00:30;;;;;;;;;;;;;;;;;;4228471;28;2248;-56
2022/03/26 15:02:51;;;;;;;;;;;;;;;;;;4223777;28;996;-56
2022/03/26 15:05:12;;;;;;;;;;;;;;;;;;4224063;28;1066;-56
2022/03/26 15:07:33;;;;;;;;;;;;;;;;;;4223639;28;1910;-56
2022/03/26 15:09:54;;;;;;;;;;;;;;;;;;4223726;28;1140;-56
2022/03/26 15:12:14;;;;;;;;;;;;;;;;;;4224085;28;1283;-56
2022/03/26 15:14:34;;;;;;;;;;;;;;;;;;4223712;28;803;-56
2022/03/26 15:16:57;;;;;;;;;;;;;;;;;;4224037;28;1060;-57
2022/03/26 15:19:19;;;;;;;;;;;;;;;;;;4223671;28;1074;-56
2022/03/26 15:21:40;;;;;;;;;;;;;;;;;;4223402;28;1072;-56
2022/03/26 15:24:01;;;;;;;;;;;;;;;;;;4223859;28;1252;-56
2022/03/26 15:26:21;;;;;;;;;;;;;;;;;;4224005;28;829;-56
2022/03/26 15:28:42;;;;;;;;;;;;;;;;;;4223309;28;1273;-57
2022/03/26 15:31:03;;;;;;;;;;;;;;;;;;4221676;28;1003;-57
2022/03/26 15:33:23;;;;;;;;;;;;;;;;;;4221317;28;902;-57
2022/03/26 15:35:44;;;;;;;;;;;;;;;;;;4219176;28;1069;-57
2022/03/26 15:38:05;;;;;;;;;;;;;;;;;;4220868;28;1232;-57
2022/03/26 15:40:25;;;;;;;;;;;;;;;;;;4220795;28;1050;-56
2022/03/26 15:42:46;;;;;;;;;;;;;;;;;;4220510;28;962;-56
2022/03/26 15:45:07;;;;;;;;;;;;;;;;;;4220957;28;773;-57
2022/03/26 15:47:27;;;;;;;;;;;;;;;;;;4220820;28;1978;-57
2022/03/26 15:49:48;;;;;;;;;;;;;;;;;;4220897;28;938;-57
2022/03/26 15:52:09;;;;;;;;;;;;;;;;;;4220826;28;908;-57
2022/03/26 15:54:29;;;;;;;;;;;;;;;;;;4220546;28;961;-56
2022/03/26 15:56:50;;;;;;;;;;;;;;;;;;4220620;28;1060;-56
2022/03/26 15:59:11;;;;;;;;;;;;;;;;;;4220155;28;1230;-57
2022/03/26 16:01:32;;;;;;;;;;;;;;;;;;4220825;28;899;-56
2022/03/26 16:03:53;;;;;;;;;;;;;;;;;;4220545;28;987;-56
2022/03/26 16:06:14;;;;;;;;;;;;;;;;;;4219874;28;1130;-56
2022/03/26 16:08:34;;;;;;;;;;;;;;;;;;4220284;28;1914;-56
2022/03/26 16:10:55;;;;;;;;;;;;;;;;;;4220378;28;1084;-56
2022/03/26 16:13:17;;;;;;;;;;;;;;;;;;4219931;28;1039;-57
2022/03/26 16:15:37;;;;;;;;;;;;;;;;;;4220460;28;969;-57
2022/03/26 16:17:58;;;;;;;;;;;;;;;;;;4219762;28;1103;-58
2022/03/26 16:20:19;;;;;;;;;;;;;;;;;;4219761;28;1301;-57
2022/03/26 16:22:39;;;;;;;;;;;;;;;;;;4220395;28;1076;-57
2022/03/26 16:25:00;;;;;;;;;;;;;;;;;;4220295;28;1013;-57
2022/03/26 16:27:20;;;;;;;;;;;;;;;;;;4219754;28;1991;-57
2022/03/26 16:29:42;;;;;;;;;;;;;;;;;;4220241;28;1090;-57
2022/03/26 16:32:02;;;;;;;;;;;;;;;;;;4220239;28;901;-56
2022/03/26 16:34:23;;;;;;;;;;;;;;;;;;4219914;28;813;-56
2022/03/26 16:36:43;;;;;;;;;;;;;;;;;;4220084;28;961;-56
2022/03/26 16:39:03;;;;;;;;;;;;;;;;;;4220122;28;973;-56
2022/03/26 16:41:24;;;;;;;;;;;;;;;;;;4219985;28;1105;-56
2022/03/26 16:43:45;;;;;;;;;;;;;;;;;;4219116;28;817;-56